createdAt,value
2019-02-04T00:02:26.753Z,16.73
2019-02-04T00:04:58.034Z,19.12
2019-02-04T00:07:29.930Z,17.77
2019-02-04T00:10:00.791Z,16.85
2019-02-04T00:12:31.730Z,18.25
2019-02-04T00:15:02.572Z,18.50
2019-02-04T00:17:33.771Z,18.80
2019-02-04T00:20:05.654Z,17.73
2019-02-04T00:22:36.794Z,17.60
2019-02-04T00:25:07.949Z,17.30
2019-02-04T00:27:38.763Z,17.63
2019-02-04T00:30:09.904Z,17.40
2019-02-04T00:32:40.954Z,19.37
2019-02-04T00:35:12.307Z,18.90
2019-02-04T00:37:43.036Z,18.63
2019-02-04T00:40:16.260Z,20.52
2019-02-04T00:42:47.641Z,21.73
2019-02-04T00:45:18.599Z,21.27
2019-02-04T00:47:49.466Z,22.22
2019-02-04T00:50:20.543Z,21.27
2019-02-04T00:52:51.844Z,21.40
2019-02-04T00:55:23.757Z,21.60
2019-02-04T00:57:54.589Z,21.35
2019-02-04T01:00:27.268Z,22.02
2019-02-04T01:02:58.720Z,22.10
2019-02-04T01:05:30.125Z,22.50
2019-02-04T01:08:01.683Z,23.63
2019-02-04T01:10:32.782Z,22.95
2019-02-04T01:13:04.073Z,22.90
2019-02-04T01:15:34.879Z,25.75
2019-02-04T01:18:06.295Z,25.90
2019-02-04T01:20:37.855Z,22.90
2019-02-04T01:23:08.760Z,28.30
2019-02-04T01:25:39.552Z,25.95
2019-02-04T01:28:11.858Z,26.50
2019-02-04T01:30:42.716Z,27.27
2019-02-04T01:33:14.015Z,29.75
2019-02-04T01:35:44.949Z,30.80
2019-02-04T01:38:15.746Z,30.92
2019-02-04T01:40:46.893Z,28.73
2019-02-04T01:43:17.656Z,26.97
2019-02-04T01:45:48.710Z,31.47
2019-02-04T01:48:19.471Z,36.03
2019-02-04T01:50:50.241Z,40.03
2019-02-04T01:53:21.159Z,36.48
2019-02-04T01:55:52.424Z,33.90
2019-02-04T01:58:23.745Z,29.75
2019-02-04T02:00:54.795Z,31.80
2019-02-04T02:03:25.925Z,37.30
2019-02-04T02:05:57.057Z,38.78
2019-02-04T02:08:28.207Z,37.73
2019-02-04T02:10:59.583Z,33.63
2019-02-04T02:13:30.441Z,37.63
2019-02-04T02:16:01.359Z,32.93
2019-02-04T02:18:32.464Z,32.63
2019-02-04T02:21:03.300Z,27.60
2019-02-04T02:23:34.573Z,30.40
2019-02-04T02:26:06.449Z,30.72
2019-02-04T02:28:37.538Z,29.82
2019-02-04T02:31:08.735Z,28.77
2019-02-04T02:33:40.148Z,29.40
2019-02-04T02:36:11.381Z,28.90
2019-02-04T02:38:42.282Z,28.93
2019-02-04T02:41:13.018Z,29.23
2019-02-04T02:43:43.930Z,27.73
2019-02-04T02:46:14.719Z,28.35
2019-02-04T02:48:45.967Z,27.58
2019-02-04T02:51:16.739Z,28.80
2019-02-04T02:53:47.691Z,27.35
2019-02-04T02:56:18.459Z,26.80
2019-02-04T02:58:49.674Z,28.65
2019-02-04T03:01:20.594Z,27.55
2019-02-04T03:03:51.918Z,26.87
2019-02-04T03:06:23.036Z,27.77
2019-02-04T03:08:54.347Z,26.00
2019-02-04T03:11:25.117Z,26.45
2019-02-04T03:13:56.370Z,26.42
2019-02-04T03:16:27.669Z,26.35
2019-02-04T03:18:58.445Z,25.02
2019-02-04T03:21:29.287Z,25.02
2019-02-04T03:24:00.858Z,27.37
2019-02-04T03:26:32.453Z,28.10
2019-02-04T03:29:03.318Z,28.07
2019-02-04T03:31:39.053Z,25.20
2019-02-04T03:34:08.132Z,25.15
2019-02-04T03:36:39.052Z,25.97
2019-02-04T03:39:10.931Z,24.77
2019-02-04T03:41:42.531Z,25.95
2019-02-04T03:44:13.707Z,23.70
2019-02-04T03:46:44.528Z,23.77
2019-02-04T03:49:15.282Z,24.52
2019-02-04T03:51:46.698Z,23.87
2019-02-04T03:54:17.439Z,24.27
2019-02-04T03:56:48.237Z,23.65
2019-02-04T03:59:19.235Z,23.92
2019-02-04T04:01:50.019Z,23.38
2019-02-04T04:04:21.049Z,24.07
2019-02-04T04:06:52.056Z,23.00
2019-02-04T04:09:22.960Z,23.80
2019-02-04T04:11:54.065Z,21.95
2019-02-04T04:14:24.805Z,22.10
2019-02-04T04:16:56.187Z,22.77
2019-02-04T04:19:27.081Z,22.98
2019-02-04T04:21:58.606Z,22.37
2019-02-04T04:24:30.183Z,21.93
2019-02-04T04:27:01.071Z,21.63
2019-02-04T04:29:32.324Z,22.42
2019-02-04T04:32:03.187Z,24.20
2019-02-04T04:34:34.033Z,24.10
2019-02-04T04:37:04.965Z,22.10
2019-02-04T04:39:35.777Z,22.75
2019-02-04T04:42:07.047Z,21.62
2019-02-04T04:44:39.246Z,21.60
2019-02-04T04:47:10.477Z,21.87
2019-02-04T04:49:42.336Z,21.37
2019-02-04T04:52:14.422Z,20.87
2019-02-04T04:54:45.722Z,20.90
2019-02-04T04:57:16.563Z,21.23
2019-02-04T04:59:47.719Z,21.23
2019-02-04T05:02:18.449Z,21.27
2019-02-04T05:04:49.634Z,20.68
2019-02-04T05:07:21.242Z,21.43
2019-02-04T05:09:52.111Z,21.37
2019-02-04T05:12:22.930Z,21.37
2019-02-04T05:15:06.549Z,21.30
2019-02-04T05:17:37.741Z,21.55
2019-02-04T05:20:09.771Z,21.57
2019-02-04T05:22:40.618Z,21.57
2019-02-04T05:25:11.648Z,21.68
2019-02-04T05:27:42.523Z,21.70
2019-02-04T05:30:15.925Z,22.48
2019-02-04T05:32:46.737Z,22.22
2019-02-04T05:35:18.169Z,22.27
2019-02-04T05:37:49.119Z,22.05
2019-02-04T05:40:20.088Z,22.77
2019-02-04T05:42:51.363Z,22.25
2019-02-04T05:45:22.683Z,22.17
2019-02-04T05:47:53.945Z,21.77
2019-02-04T05:50:24.864Z,23.02
2019-02-04T05:52:55.656Z,22.00
2019-02-04T05:55:26.903Z,22.67
2019-02-04T05:57:57.729Z,22.13
2019-02-04T06:00:34.652Z,22.62
2019-02-04T06:03:06.057Z,22.10
2019-02-04T06:05:37.056Z,21.65
2019-02-04T06:08:07.856Z,22.40
2019-02-04T06:10:38.740Z,21.42
2019-02-04T06:13:09.635Z,21.33
2019-02-04T06:15:40.519Z,21.77
2019-02-04T06:18:11.224Z,20.62
2019-02-04T06:20:42.883Z,20.88
2019-02-04T06:23:13.707Z,20.70
2019-02-04T06:25:44.820Z,20.23
2019-02-04T06:28:15.713Z,21.05
2019-02-04T06:30:46.567Z,20.27
2019-02-04T06:33:17.538Z,20.72
2019-02-04T06:35:48.390Z,20.75
2019-02-04T06:38:20.447Z,20.45
2019-02-04T06:40:51.869Z,20.48
2019-02-04T06:43:22.728Z,21.05
2019-02-04T06:45:53.673Z,21.62
2019-02-04T06:48:24.424Z,20.95
2019-02-04T06:50:55.844Z,20.20
2019-02-04T06:53:26.700Z,20.57
2019-02-04T06:55:57.444Z,20.52
2019-02-04T06:58:28.585Z,20.50
2019-02-04T07:00:59.320Z,21.02
2019-02-04T07:03:30.073Z,20.10
2019-02-04T07:06:00.884Z,21.02
2019-02-04T07:08:31.770Z,21.33
2019-02-04T07:11:03.004Z,20.97
2019-02-04T07:13:33.887Z,21.00
2019-02-04T07:16:05.438Z,20.55
2019-02-04T07:18:36.476Z,19.70
2019-02-04T07:21:07.315Z,20.33
2019-02-04T07:23:38.075Z,19.60
2019-02-04T07:26:09.183Z,21.17
2019-02-04T07:28:39.914Z,20.37
2019-02-04T07:31:10.889Z,20.90
2019-02-04T07:33:41.943Z,21.15
2019-02-04T07:36:13.048Z,20.10
2019-02-04T07:38:43.972Z,20.65
2019-02-04T07:41:16.043Z,19.73
2019-02-04T07:43:47.131Z,18.90
2019-02-04T07:46:18.040Z,20.32
2019-02-04T07:48:48.866Z,19.32
2019-02-04T07:51:20.011Z,20.25
2019-02-04T07:53:51.059Z,19.55
2019-02-04T07:56:21.845Z,20.40
2019-02-04T07:58:52.618Z,20.07
2019-02-04T08:01:23.606Z,19.60
2019-02-04T08:03:55.022Z,20.37
2019-02-04T08:06:25.870Z,19.05
2019-02-04T08:08:56.750Z,19.75
2019-02-04T08:11:27.570Z,19.52
2019-02-04T08:13:58.402Z,20.90
2019-02-04T08:16:29.606Z,24.43
2019-02-04T08:19:00.470Z,23.52
2019-02-04T08:21:31.603Z,25.05
2019-02-04T08:24:02.734Z,20.00
2019-02-04T08:26:33.555Z,18.67
2019-02-04T08:29:05.079Z,18.80
2019-02-04T08:31:35.961Z,18.55
2019-02-04T08:34:06.848Z,18.05
2019-02-04T08:36:44.490Z,17.80
2019-02-04T08:39:10.404Z,17.50
2019-02-04T08:41:41.209Z,17.90
2019-02-04T08:44:12.520Z,17.25
2019-02-04T08:46:43.846Z,17.07
2019-02-04T08:49:14.605Z,16.93
2019-02-04T08:51:45.719Z,16.90
2019-02-04T08:54:16.773Z,18.02
2019-02-04T08:56:48.067Z,16.82
2019-02-04T08:59:18.913Z,16.55
2019-02-04T09:01:49.693Z,17.52
2019-02-04T09:04:20.470Z,16.00
2019-02-04T09:06:51.677Z,17.80
2019-02-04T09:09:22.707Z,17.80
2019-02-04T09:11:53.792Z,18.02
2019-02-04T09:14:24.543Z,18.05
2019-02-04T09:16:55.407Z,17.98
2019-02-04T09:19:26.511Z,17.45
2019-02-04T09:21:57.267Z,18.05
2019-02-04T09:24:28.398Z,18.52
2019-02-04T09:26:59.543Z,17.50
2019-02-04T09:29:30.351Z,17.45
2019-02-04T09:32:01.280Z,18.15
2019-02-04T09:34:32.230Z,16.67
2019-02-04T09:37:03.550Z,16.90
2019-02-04T09:39:34.777Z,16.97
2019-02-04T09:42:05.862Z,17.35
2019-02-04T09:44:37.006Z,17.60
2019-02-04T09:47:07.979Z,18.23
2019-02-04T09:49:38.916Z,16.90
2019-02-04T09:52:09.793Z,17.52
2019-02-04T09:54:41.357Z,18.48
2019-02-04T09:57:12.245Z,18.10
2019-02-04T09:59:42.990Z,17.80
2019-02-04T10:02:13.865Z,17.30
2019-02-04T10:04:44.599Z,17.20
2019-02-04T10:07:15.878Z,16.05
2019-02-04T10:09:46.723Z,16.77
2019-02-04T10:12:17.736Z,15.72
2019-02-04T10:14:49.464Z,15.53
2019-02-04T10:17:20.181Z,14.75
2019-02-04T10:19:51.431Z,14.40
2019-02-04T10:22:22.338Z,13.93
2019-02-04T10:24:53.450Z,14.80
2019-02-04T10:27:24.268Z,14.47
2019-02-04T10:30:01.624Z,14.50
2019-02-04T10:32:32.442Z,14.60
2019-02-04T10:35:03.521Z,14.25
2019-02-04T10:37:34.306Z,13.70
2019-02-04T10:40:05.963Z,14.30
2019-02-04T10:42:37.124Z,13.40
2019-02-04T10:45:09.297Z,13.13
2019-02-04T10:47:40.079Z,13.13
2019-02-04T10:50:14.782Z,13.53
2019-02-04T10:52:46.143Z,12.60
2019-02-04T10:55:17.124Z,12.80
2019-02-04T10:57:48.433Z,12.88
2019-02-04T11:00:21.525Z,12.53
2019-02-04T11:02:52.527Z,12.00
2019-02-04T11:05:25.609Z,11.22
2019-02-04T11:07:56.790Z,11.93
2019-02-04T11:10:33.120Z,11.55
2019-02-04T11:13:08.388Z,11.63
2019-02-04T11:15:39.650Z,10.53
2019-02-04T11:18:11.471Z,10.50
2019-02-04T11:20:44.140Z,10.77
2019-02-04T11:23:15.161Z,10.75
2019-02-04T11:25:47.655Z,11.03
2019-02-04T11:28:19.460Z,10.08
2019-02-04T11:31:02.408Z,10.43
2019-02-04T11:33:33.866Z,9.50
2019-02-04T11:36:05.082Z,9.60
2019-02-04T11:38:36.280Z,9.55
2019-02-04T11:41:07.922Z,12.10
2019-02-04T11:43:39.066Z,8.80
2019-02-04T11:46:10.810Z,10.78
2019-02-04T11:48:41.613Z,9.88
2019-02-04T11:51:12.560Z,9.38
2019-02-04T11:53:43.370Z,10.20
2019-02-04T11:56:14.470Z,9.53
2019-02-04T11:58:45.283Z,9.03
2019-02-04T12:01:16.147Z,9.13
2019-02-04T12:03:47.189Z,9.03
2019-02-04T12:06:17.926Z,8.55
2019-02-04T12:08:48.649Z,8.60
2019-02-04T12:11:21.234Z,8.05
2019-02-04T12:13:52.362Z,7.58
2019-02-04T12:16:23.291Z,6.92
2019-02-04T12:18:54.222Z,6.90
2019-02-04T12:21:25.606Z,7.03
2019-02-04T12:23:56.632Z,6.75
2019-02-04T12:26:27.518Z,6.25
2019-02-04T12:28:58.230Z,7.00
2019-02-04T12:31:29.258Z,6.17
2019-02-04T12:34:00.273Z,5.40
2019-02-04T12:36:31.031Z,5.53
2019-02-04T12:39:03.886Z,5.20
2019-02-04T12:41:36.114Z,5.25
2019-02-04T12:44:07.006Z,4.90
2019-02-04T12:46:37.855Z,5.75
2019-02-04T12:49:09.003Z,4.83
2019-02-04T12:51:40.014Z,5.05
2019-02-04T12:54:11.073Z,5.03
2019-02-04T12:56:42.143Z,5.60
2019-02-04T12:59:12.854Z,5.10
2019-02-04T13:01:43.862Z,4.85
2019-02-04T13:04:14.650Z,5.00
2019-02-04T13:06:46.901Z,4.70
2019-02-04T13:09:18.044Z,3.92
2019-02-04T13:11:48.918Z,3.80
2019-02-04T13:14:19.650Z,4.05
2019-02-04T13:16:50.510Z,3.97
2019-02-04T13:19:21.855Z,3.73
2019-02-04T13:21:52.943Z,3.90
2019-02-04T13:24:23.951Z,3.80
2019-02-04T13:26:55.002Z,3.60
2019-02-04T13:29:26.025Z,3.60
2019-02-04T13:31:56.931Z,4.00
2019-02-04T13:34:28.775Z,4.03
2019-02-04T13:36:59.711Z,4.00
2019-02-04T13:39:30.824Z,3.50
2019-02-04T13:42:01.614Z,3.70
2019-02-04T13:44:32.674Z,3.72
2019-02-04T13:47:05.797Z,3.85
2019-02-04T13:49:36.687Z,3.92
2019-02-04T13:52:07.490Z,4.22
2019-02-04T13:54:38.607Z,4.23
2019-02-04T13:57:09.453Z,4.70
2019-02-04T13:59:40.703Z,3.98
2019-02-04T14:02:13.555Z,3.85
2019-02-04T14:04:44.497Z,4.10
2019-02-04T14:07:16.290Z,3.92
2019-02-04T14:09:47.529Z,4.35
2019-02-04T14:12:19.064Z,4.70
2019-02-04T14:14:50.227Z,4.12
2019-02-04T14:17:24.219Z,3.97
2019-02-04T14:19:53.746Z,4.10
2019-02-04T14:22:24.453Z,4.00
2019-02-04T14:24:55.238Z,3.72
2019-02-04T14:27:26.359Z,5.28
2019-02-04T14:29:57.165Z,4.42
2019-02-04T14:32:28.643Z,4.23
2019-02-04T14:34:59.429Z,5.33
2019-02-04T14:37:31.383Z,6.17
2019-02-04T14:40:17.816Z,5.92
2019-02-04T14:42:35.743Z,5.80
2019-02-04T14:45:28.131Z,6.10
2019-02-04T14:48:44.810Z,6.00
2019-02-04T14:51:31.467Z,5.60
2019-02-04T14:54:37.973Z,6.05
2019-02-04T14:57:19.991Z,5.97
2019-02-04T15:00:07.252Z,6.33
2019-02-04T15:02:59.847Z,6.03
2019-02-04T15:05:42.689Z,8.93
2019-02-04T15:08:42.977Z,6.40
2019-02-04T15:11:56.617Z,6.37
2019-02-04T15:15:17.247Z,6.12
2019-02-04T15:18:41.655Z,6.78
2019-02-04T15:21:51.584Z,6.08
2019-02-04T15:25:12.646Z,8.73
2019-02-04T15:28:10.923Z,6.70
2019-02-04T15:30:52.522Z,7.20
2019-02-04T15:34:06.707Z,6.90
2019-02-04T15:37:09.533Z,6.50
2019-02-04T15:40:00.607Z,5.75
2019-02-04T15:43:10.261Z,5.92
2019-02-04T15:46:13.075Z,5.55
2019-02-04T15:49:21.114Z,5.40
2019-02-04T15:51:56.331Z,4.80
2019-02-04T15:54:27.934Z,4.77
2019-02-04T15:56:59.710Z,4.72
2019-02-04T15:59:30.659Z,4.72
2019-02-04T16:02:01.826Z,4.35
2019-02-04T16:04:34.098Z,5.35
2019-02-04T16:07:07.879Z,5.12
2019-02-04T16:09:39.195Z,4.90
2019-02-04T16:12:10.622Z,5.05
2019-02-04T16:14:41.442Z,4.73
2019-02-04T16:17:12.620Z,5.25
2019-02-04T16:19:45.372Z,5.03
2019-02-04T16:22:16.138Z,4.80
2019-02-04T16:24:49.579Z,5.20
2019-02-04T16:27:20.345Z,4.75
2019-02-04T16:29:51.068Z,5.17
2019-02-04T16:32:22.893Z,4.70
2019-02-04T16:34:53.712Z,5.03
2019-02-04T16:37:24.947Z,5.10
2019-02-04T16:39:55.752Z,4.93
2019-02-04T16:42:26.746Z,4.60
2019-02-04T16:44:57.891Z,6.20
2019-02-04T16:47:28.636Z,6.17
2019-02-04T16:50:02.620Z,5.87
2019-02-04T16:52:33.975Z,4.80
2019-02-04T16:55:05.635Z,5.30
2019-02-04T16:57:36.506Z,5.00
2019-02-04T17:00:11.912Z,5.80
2019-02-04T17:02:43.086Z,5.95
2019-02-04T17:05:14.559Z,6.07
2019-02-04T17:07:45.574Z,5.35
2019-02-04T17:10:18.642Z,6.28
2019-02-04T17:12:49.785Z,5.62
2019-02-04T17:15:20.812Z,5.40
2019-02-04T17:17:52.838Z,5.62
2019-02-04T17:20:26.808Z,5.22
2019-02-04T17:22:57.844Z,5.30
2019-02-04T17:25:28.735Z,5.37
2019-02-04T17:27:59.722Z,5.85
2019-02-04T17:30:37.927Z,6.29
2019-02-04T17:33:08.849Z,6.53
2019-02-04T17:35:39.800Z,6.85
2019-02-04T17:38:10.673Z,6.67
2019-02-04T17:40:42.049Z,6.30
2019-02-04T17:43:12.916Z,6.20
2019-02-04T17:45:46.631Z,6.30
2019-02-04T17:48:17.436Z,5.87
2019-02-04T17:50:49.325Z,5.72
2019-02-04T17:53:20.438Z,5.25
2019-02-04T17:55:51.394Z,5.03
2019-02-04T17:58:22.419Z,4.40
2019-02-04T18:00:54.542Z,4.70
2019-02-04T18:03:25.390Z,4.35
2019-02-04T18:05:56.697Z,4.50
2019-02-04T18:08:27.657Z,4.90
2019-02-04T18:11:00.186Z,4.72
2019-02-04T18:13:32.077Z,4.75
2019-02-04T18:16:02.978Z,3.92
2019-02-04T18:18:34.054Z,4.20
2019-02-04T18:21:05.692Z,3.70
2019-02-04T18:23:45.661Z,3.55
2019-02-04T18:26:09.126Z,3.58
2019-02-04T18:28:40.237Z,3.25
2019-02-04T18:31:11.559Z,3.30
2019-02-04T18:33:42.371Z,3.42
2019-02-04T18:36:32.340Z,3.90
2019-02-04T18:39:10.105Z,4.10
2019-02-04T18:41:41.002Z,4.93
2019-02-04T18:44:11.935Z,4.50
2019-02-04T18:46:43.459Z,4.53
2019-02-04T18:49:14.368Z,4.37
2019-02-04T18:51:45.331Z,4.47
2019-02-04T18:54:16.546Z,4.75
2019-02-04T18:56:47.444Z,4.80
2019-02-04T18:59:18.237Z,4.92
2019-02-04T19:01:49.073Z,5.50
2019-02-04T19:04:20.347Z,5.42
2019-02-04T19:06:51.205Z,5.65
2019-02-04T19:09:22.017Z,5.70
2019-02-04T19:11:55.448Z,6.00
2019-02-04T19:14:26.296Z,5.83
2019-02-04T19:16:57.127Z,6.17
2019-02-04T19:19:28.078Z,6.20
2019-02-04T19:21:58.888Z,6.35
2019-02-04T19:24:29.651Z,6.60
2019-02-04T19:27:00.522Z,6.00
2019-02-04T19:29:31.711Z,6.92
2019-02-04T19:32:02.907Z,6.58
2019-02-04T19:34:34.089Z,6.62
2019-02-04T19:37:05.280Z,7.30
2019-02-04T19:39:36.154Z,6.80
2019-02-04T19:42:07.669Z,7.12
2019-02-04T19:44:38.445Z,7.15
2019-02-04T19:47:09.321Z,7.25
2019-02-04T19:49:40.100Z,7.20
2019-02-04T19:52:11.013Z,7.17
2019-02-04T19:54:41.878Z,7.05
2019-02-04T19:57:12.831Z,7.00
2019-02-04T19:59:43.813Z,7.33
2019-02-04T20:02:15.070Z,7.42
2019-02-04T20:04:45.960Z,7.30
2019-02-04T20:07:16.747Z,7.70
2019-02-04T20:09:47.791Z,7.58
2019-02-04T20:12:18.584Z,7.70
2019-02-04T20:14:49.419Z,7.87
2019-02-04T20:17:20.248Z,7.70
2019-02-04T20:19:51.067Z,8.10
2019-02-04T20:22:22.372Z,8.70
2019-02-04T20:24:53.133Z,8.85
2019-02-04T20:27:27.079Z,9.03
2019-02-04T20:29:56.820Z,8.70
2019-02-04T20:32:27.664Z,9.23
2019-02-04T20:34:59.190Z,9.00
2019-02-04T20:37:29.956Z,9.10
2019-02-04T20:40:01.029Z,8.30
2019-02-04T20:42:31.832Z,8.45
2019-02-04T20:45:05.264Z,8.30
2019-02-04T20:47:38.604Z,8.80
2019-02-04T20:50:13.245Z,8.10
2019-02-04T20:52:43.998Z,8.48
2019-02-04T20:55:15.109Z,9.45
2019-02-04T20:57:45.951Z,9.18
2019-02-04T21:00:19.387Z,8.30
2019-02-04T21:02:50.197Z,8.30
2019-02-04T21:05:21.084Z,8.35
2019-02-04T21:07:52.397Z,8.43
2019-02-04T21:10:24.030Z,8.00
2019-02-04T21:12:55.491Z,8.33
2019-02-04T21:15:26.924Z,7.75
2019-02-04T21:17:57.834Z,7.80
2019-02-04T21:20:28.813Z,7.42
2019-02-04T21:22:59.841Z,7.85
2019-02-04T21:25:31.695Z,7.07
2019-02-04T21:28:02.696Z,6.43
2019-02-04T21:30:36.091Z,6.80
2019-02-04T21:33:07.376Z,6.62
2019-02-04T21:35:38.271Z,6.75
2019-02-04T21:38:09.119Z,6.58
2019-02-04T21:40:40.142Z,6.75
2019-02-04T21:43:11.103Z,5.92
2019-02-04T21:45:41.856Z,6.35
2019-02-04T21:48:12.796Z,6.55
2019-02-04T21:50:43.779Z,6.12
2019-02-04T21:53:14.676Z,6.40
2019-02-04T21:55:45.431Z,6.25
2019-02-04T21:58:16.435Z,6.30
2019-02-04T22:00:47.359Z,5.97
2019-02-04T22:03:18.448Z,6.33
2019-02-04T22:05:50.037Z,6.53
2019-02-04T22:08:20.790Z,6.37
2019-02-04T22:10:51.578Z,6.37
2019-02-04T22:13:22.319Z,6.25
2019-02-04T22:15:53.907Z,6.30
2019-02-04T22:18:24.922Z,6.30
2019-02-04T22:20:56.283Z,6.10
2019-02-04T22:23:27.132Z,5.47
2019-02-04T22:25:58.412Z,5.50
2019-02-04T22:28:29.167Z,5.80
2019-02-04T22:31:00.345Z,5.28
2019-02-04T22:33:31.205Z,5.42
2019-02-04T22:36:02.097Z,5.42
2019-02-04T22:38:33.164Z,5.65
2019-02-04T22:41:04.183Z,5.30
2019-02-04T22:43:35.244Z,5.17
2019-02-04T22:46:06.693Z,5.12
2019-02-04T22:48:37.515Z,5.58
2019-02-04T22:51:08.460Z,5.85
2019-02-04T22:53:39.221Z,5.62
2019-02-04T22:56:10.609Z,5.50
2019-02-04T22:58:41.524Z,5.47
2019-02-04T23:01:43.752Z,5.60
2019-02-04T23:04:14.735Z,5.60
2019-02-04T23:06:47.164Z,5.40
2019-02-04T23:09:18.435Z,5.95
2019-02-04T23:11:49.257Z,5.62
2019-02-04T23:14:20.106Z,5.80
2019-02-04T23:16:50.919Z,5.92
2019-02-04T23:19:22.168Z,5.60
2019-02-04T23:21:52.983Z,6.10
2019-02-04T23:24:23.806Z,5.55
2019-02-04T23:26:54.556Z,5.85
2019-02-04T23:29:25.403Z,6.28
2019-02-04T23:31:56.682Z,6.53
2019-02-04T23:34:27.436Z,6.20
2019-02-04T23:36:58.242Z,6.47
2019-02-04T23:39:30.930Z,6.83
2019-02-04T23:42:01.953Z,6.70
2019-02-04T23:44:33.617Z,6.77
2019-02-04T23:47:04.446Z,6.17
2019-02-04T23:49:35.196Z,6.83
2019-02-04T23:52:06.076Z,6.70
2019-02-04T23:54:36.875Z,6.37
2019-02-04T23:57:07.609Z,6.90
2019-02-04T23:59:38.456Z,7.00
